createdAt,value
2023-02-24T00:00:10.770Z,11.92
2023-02-24T00:05:59.800Z,12.87
2023-02-24T00:11:24.453Z,13.12
2023-02-24T00:16:46.407Z,11.85
2023-02-24T00:22:13.914Z,12.51
2023-02-24T00:28:03.712Z,13.36
2023-02-24T00:33:21.729Z,12.17
2023-02-24T00:38:44.865Z,12.29
2023-02-24T00:44:33.341Z,13.21
2023-02-24T00:49:51.536Z,12.54
2023-02-24T00:55:10.522Z,11.67
2023-02-24T01:00:35.709Z,12.61
2023-02-24T01:06:00.529Z,12.62
2023-02-24T01:11:25.576Z,12.48
2023-02-24T01:16:51.003Z,12.54
2023-02-24T01:22:10.759Z,12.23
2023-02-24T01:27:32.421Z,13.21
2023-02-24T01:32:57.184Z,12.35
2023-02-24T01:38:15.895Z,12.13
2023-02-24T01:43:37.895Z,11.88
2023-02-24T01:49:16.679Z,13.77
2023-02-24T01:54:40.839Z,12.27
2023-02-24T02:00:03.370Z,12.68
2023-02-24T02:05:33.239Z,11.58
2023-02-24T02:10:57.887Z,12.97
2023-02-24T02:16:21.350Z,12.52
2023-02-24T02:21:54.583Z,12.72
2023-02-24T02:27:23.543Z,12.65
2023-02-24T02:33:06.310Z,12.62
2023-02-24T02:38:58.713Z,11.52
2023-02-24T02:44:23.277Z,11.77
2023-02-24T02:49:42.488Z,11.13
2023-02-24T02:55:06.952Z,10.56
2023-02-24T03:00:32.309Z,11.47
2023-02-24T03:05:56.987Z,10.69
2023-02-24T03:11:20.137Z,10.30
2023-02-24T03:16:44.933Z,10.34
2023-02-24T03:22:09.121Z,10.24
2023-02-24T03:27:33.691Z,10.91
2023-02-24T03:32:58.634Z,10.39
2023-02-24T03:38:21.922Z,11.10
2023-02-24T03:43:46.917Z,11.22
2023-02-24T03:49:35.975Z,11.70
2023-02-24T03:54:53.708Z,10.75
2023-02-24T04:00:23.962Z,10.91
2023-02-24T04:05:44.071Z,11.28
2023-02-24T04:11:09.403Z,11.24
2023-02-24T04:16:29.102Z,11.49
2023-02-24T04:21:49.180Z,10.97
2023-02-24T04:27:14.220Z,12.33
2023-02-24T04:32:38.843Z,11.20
2023-02-24T04:38:03.114Z,10.07
2023-02-24T04:44:11.446Z,12.56
2023-02-24T04:49:28.244Z,10.09
2023-02-24T04:54:52.051Z,11.27
2023-02-24T05:00:16.453Z,10.90
2023-02-24T05:05:41.067Z,10.15
2023-02-24T05:11:03.841Z,10.89
2023-02-24T05:16:25.534Z,10.08
2023-02-24T05:21:50.074Z,11.22
2023-02-24T05:27:14.395Z,10.68
2023-02-24T05:32:33.306Z,10.92
2023-02-24T05:38:41.711Z,12.30
2023-02-24T05:43:59.273Z,11.03
2023-02-24T05:49:23.105Z,10.68
2023-02-24T05:54:47.231Z,11.27
2023-02-24T06:00:09.794Z,12.05
2023-02-24T06:05:35.609Z,11.60
2023-02-24T06:11:00.047Z,11.59
2023-02-24T06:17:28.069Z,12.71
2023-02-24T06:22:44.416Z,11.71
2023-02-24T06:28:08.283Z,11.64
2023-02-24T06:33:29.173Z,11.73
2023-02-24T06:38:53.468Z,10.92
2023-02-24T06:44:12.609Z,11.79
2023-02-24T06:49:34.693Z,11.13
2023-02-24T06:54:59.693Z,11.50
2023-02-24T07:00:25.876Z,12.43
2023-02-24T07:05:49.324Z,11.85
2023-02-24T07:11:14.144Z,11.14
2023-02-24T07:16:37.496Z,11.22
2023-02-24T07:22:01.794Z,12.00
2023-02-24T07:27:26.939Z,12.19
2023-02-24T07:32:51.915Z,12.30
2023-02-24T07:38:10.866Z,12.01
2023-02-24T07:43:35.408Z,12.34
2023-02-24T07:48:58.721Z,11.35
2023-02-24T07:54:17.950Z,12.33
2023-02-24T07:59:38.816Z,11.77
2023-02-24T08:05:01.774Z,12.48
2023-02-24T08:10:25.093Z,12.39
2023-02-24T08:15:49.710Z,12.62
2023-02-24T08:21:14.931Z,12.29
2023-02-24T08:26:34.259Z,11.63
2023-02-24T08:31:56.572Z,11.49
2023-02-24T08:37:20.138Z,12.84
2023-02-24T08:42:45.328Z,12.03
2023-02-24T08:48:09.222Z,12.44
2023-02-24T08:53:45.188Z,12.94
2023-02-24T08:59:02.855Z,11.45
2023-02-24T09:04:21.706Z,13.08
2023-02-24T09:09:44.013Z,11.84
2023-02-24T09:15:08.355Z,12.52
2023-02-24T09:20:31.806Z,12.62
2023-02-24T09:25:55.701Z,12.89
2023-02-24T09:31:21.382Z,11.80
2023-02-24T09:36:44.422Z,12.33
2023-02-24T09:42:10.082Z,11.61
2023-02-24T09:47:34.213Z,11.92
2023-02-24T09:53:06.347Z,12.07
2023-02-24T09:58:34.847Z,11.01
2023-02-24T10:03:49.182Z,12.26
2023-02-24T10:09:13.871Z,11.96
2023-02-24T10:14:43.008Z,11.23
2023-02-24T10:19:57.643Z,11.25
2023-02-24T10:25:21.331Z,11.04
2023-02-24T10:30:41.647Z,10.56
2023-02-24T10:36:06.089Z,11.35
2023-02-24T10:41:30.962Z,11.41
2023-02-24T10:47:00.507Z,9.95
2023-02-24T10:52:19.497Z,9.55
2023-02-24T10:57:57.934Z,10.99
2023-02-24T11:03:09.674Z,10.11
2023-02-24T11:08:28.590Z,10.42
2023-02-24T11:13:47.381Z,11.46
2023-02-24T11:19:09.291Z,11.24
2023-02-24T11:24:28.946Z,10.83
2023-02-24T11:29:54.510Z,9.74
2023-02-24T11:35:24.283Z,10.34
2023-02-24T11:40:46.419Z,10.80
2023-02-24T11:46:11.742Z,9.79
2023-02-24T11:51:36.268Z,11.48
2023-02-24T11:57:22.953Z,10.49
2023-02-24T12:03:06.026Z,10.92
2023-02-24T12:08:24.477Z,10.61
2023-02-24T12:13:46.408Z,9.27
2023-02-24T12:19:08.274Z,9.54
2023-02-24T12:24:33.932Z,8.57
2023-02-24T12:29:57.961Z,8.71
2023-02-24T12:35:46.374Z,9.78
2023-02-24T12:41:10.601Z,9.19
2023-02-24T12:46:38.420Z,8.27
2023-02-24T12:51:56.122Z,7.31
2023-02-24T12:57:40.024Z,7.03
2023-02-24T13:02:57.720Z,6.20
2023-02-24T13:08:22.423Z,6.49
2023-02-24T13:13:45.931Z,6.34
2023-02-24T13:19:26.401Z,6.28
2023-02-24T13:24:47.881Z,6.64
2023-02-24T13:30:13.763Z,5.89
2023-02-24T13:36:17.344Z,6.06
2023-02-24T13:41:40.446Z,5.44
2023-02-24T13:47:04.841Z,5.48
2023-02-24T13:53:18.245Z,5.80
2023-02-24T13:58:46.477Z,5.27
2023-02-24T14:04:17.185Z,5.05
2023-02-24T14:09:39.477Z,4.72
2023-02-24T14:14:58.494Z,4.47
2023-02-24T14:20:23.770Z,3.86
2023-02-24T14:25:47.160Z,3.51
2023-02-24T14:31:11.231Z,3.02
2023-02-24T14:36:30.130Z,3.55
2023-02-24T14:41:53.149Z,2.88
2023-02-24T14:47:28.418Z,3.30
2023-02-24T14:52:52.435Z,3.04
2023-02-24T14:58:17.340Z,3.44
2023-02-24T15:03:39.873Z,3.17
2023-02-24T15:08:58.956Z,3.51
2023-02-24T15:14:22.181Z,3.70
2023-02-24T15:19:43.343Z,3.55
2023-02-24T15:25:08.205Z,3.83
2023-02-24T15:30:30.185Z,3.73
2023-02-24T15:35:47.785Z,3.63
2023-02-24T15:41:06.449Z,3.66
2023-02-24T15:46:32.571Z,3.90
2023-02-24T16:32:34.204Z,4.24
2023-02-24T16:37:51.677Z,4.96
2023-02-24T16:43:29.161Z,3.91
2023-02-24T16:48:49.770Z,3.78
2023-02-24T16:54:14.242Z,3.48
2023-02-24T16:59:38.551Z,3.04
2023-02-24T17:05:03.284Z,2.79
2023-02-24T17:10:28.009Z,3.01
2023-02-24T17:15:51.041Z,2.14
2023-02-24T17:21:36.570Z,2.04
2023-02-24T17:26:59.890Z,1.79
2023-02-24T17:32:25.560Z,1.68
2023-02-24T17:37:50.399Z,1.58
2023-02-24T17:43:13.454Z,1.92
2023-02-24T17:48:38.200Z,1.97
2023-02-24T17:53:59.686Z,1.61
2023-02-24T17:59:23.265Z,1.61
2023-02-24T18:04:41.858Z,1.85
2023-02-24T18:10:01.910Z,1.79
2023-02-24T18:15:24.500Z,2.13
2023-02-24T18:20:46.594Z,2.02
2023-02-24T18:26:08.982Z,3.15
2023-02-24T18:31:31.665Z,2.45
2023-02-24T18:37:14.830Z,2.52
2023-02-24T18:42:38.164Z,1.89
2023-02-24T18:48:01.393Z,2.64
2023-02-24T18:53:25.548Z,2.41
2023-02-24T18:58:46.557Z,4.88
2023-02-24T19:04:10.755Z,3.29
2023-02-24T19:10:02.977Z,3.57
2023-02-24T19:15:28.389Z,3.76
2023-02-24T19:20:52.070Z,2.59
2023-02-24T19:26:12.126Z,3.45
2023-02-24T19:31:32.411Z,2.47
2023-02-24T19:36:53.823Z,1.84
2023-02-24T19:42:19.023Z,2.06
2023-02-24T19:47:41.468Z,1.99
2023-02-24T19:53:06.874Z,1.77
2023-02-24T19:58:27.008Z,2.90
2023-02-24T20:03:49.392Z,1.97
2023-02-24T20:09:14.022Z,1.83
2023-02-24T20:14:38.338Z,1.72
2023-02-24T20:20:03.797Z,1.73
2023-02-24T20:25:30.351Z,2.92
2023-02-24T20:30:55.627Z,2.60
2023-02-24T20:36:17.139Z,1.82
2023-02-24T20:41:41.085Z,1.87
2023-02-24T20:47:04.217Z,1.91
2023-02-24T20:52:28.417Z,1.86
2023-02-24T20:57:53.554Z,1.80
2023-02-24T21:03:20.113Z,1.96
2023-02-24T21:08:37.997Z,2.47
2023-02-24T21:13:57.682Z,2.59
2023-02-24T21:19:20.495Z,2.39
2023-02-24T21:24:45.304Z,2.14
2023-02-24T21:30:31.168Z,4.78
2023-02-24T21:35:53.304Z,2.41
2023-02-24T21:41:15.949Z,2.64
2023-02-24T21:46:40.771Z,2.92
2023-02-24T21:52:04.251Z,2.68
2023-02-24T21:57:45.016Z,2.99
2023-02-24T22:03:07.648Z,4.06
2023-02-24T22:08:32.014Z,3.19
2023-02-24T22:13:55.873Z,3.02
2023-02-24T22:19:18.822Z,2.90
2023-02-24T22:24:40.150Z,2.82
2023-02-24T22:30:02.958Z,2.85
2023-02-24T22:35:27.576Z,2.60
2023-02-24T22:40:50.184Z,2.94
2023-02-24T22:46:39.783Z,3.53
2023-02-24T22:52:01.251Z,3.05
2023-02-24T22:57:25.206Z,2.78
2023-02-24T23:02:49.872Z,2.72
2023-02-24T23:08:14.648Z,2.78
2023-02-24T23:13:38.991Z,2.18
2023-02-24T23:19:01.878Z,2.57
2023-02-24T23:24:26.109Z,2.27
2023-02-24T23:29:49.681Z,2.33
2023-02-24T23:35:14.904Z,2.33
2023-02-24T23:40:49.500Z,2.55
2023-02-24T23:46:00.107Z,2.32
2023-02-24T23:51:22.241Z,2.25
2023-02-24T23:56:46.995Z,2.64
